»·PEaware :: N973LW L52-L88

N973LW :: L52-L88

FLIGHT INFORMATION

Flight Status: Arrived
Operator: Privately registered:
United States
More flights under this callsign
Pilot: Anonymous 26214 (26214)
Aircraft: CESSNA 172 SKYHAWK
(C172)
More flights by this aircraft type
Origin: L52 Oceano Co
United States
Destination: L88 New Cuyama
United States
More flights between these airports :: More routes between these airports
Route: FLW
File this flight plan on PilotEdge
Remarks:
Altitude:
(Current/Filed)
8,000ft
Speed:
(Current/Filed)
100kts
Departed: 14-Oct-19 09:42 AM
Arrived: 14-Oct-19 10:46 AM
Distance/Time
Traveled:
47nm/1:04
Distance/Time
To Go:
Arrived

Flight Plot

Page will automatically refresh every two minutes.


Map Options




Map Legend


Flown Route
Filed Route
Departure Airport
Arrival Airport
Navaid (VOR, NDB)
Fix

Horizontal Profiles

Position Reports

Time Latitude Longitude Heading Altitude Ground
Speed
14-Oct-19 09:25 35.101780 -120.624488 346 14ft 0kts
14-Oct-19 09:26 35.101780 -120.624488 346 14ft 0kts
14-Oct-19 09:27 35.101780 -120.624488 346 14ft 0kts
14-Oct-19 09:28 35.101780 -120.624488 346 14ft 0kts
14-Oct-19 09:29 35.101780 -120.624488 346 14ft 0kts
14-Oct-19 09:30 35.101780 -120.624488 346 14ft 0kts
14-Oct-19 09:31 35.102084 -120.624255 76 14ft 8kts
14-Oct-19 09:32 35.100271 -120.620847 120 17ft 0kts
14-Oct-19 09:33 35.099748 -120.619879 122 17ft 9kts
14-Oct-19 09:34 35.099465 -120.619513 67 17ft 0kts
14-Oct-19 09:35 35.099465 -120.619513 67 17ft 0kts
14-Oct-19 09:36 35.099465 -120.619513 68 17ft 0kts
14-Oct-19 09:37 35.099465 -120.619513 68 17ft 0kts
14-Oct-19 09:38 35.099465 -120.619513 67 17ft 0kts
14-Oct-19 09:39 35.099465 -120.619513 68 17ft 0kts
14-Oct-19 09:40 35.099847 -120.619333 338 17ft 11kts
14-Oct-19 09:41 35.107877 -120.638742 282 499ft 91kts
14-Oct-19 09:42 35.102777 -120.669844 264 1496ft 83kts
14-Oct-19 09:43 35.092600 -120.703128 251 1487ft 119kts
14-Oct-19 09:44 35.091931 -120.742275 258 1464ft 114kts
14-Oct-19 09:45 35.084541 -120.778923 257 1463ft 106kts
14-Oct-19 09:46 35.093785 -120.806968 334 1470ft 102kts
14-Oct-19 09:47 35.121464 -120.817660 358 1396ft 104kts
14-Oct-19 09:48 35.122813 -120.788450 136 1236ft 110kts
14-Oct-19 09:49 35.111995 -120.753515 87 1167ft 98kts
14-Oct-19 09:50 35.109831 -120.718728 92 1397ft 107kts
14-Oct-19 09:51 35.104321 -120.680340 95 1267ft 118kts
14-Oct-19 09:52 35.099979 -120.640918 98 1116ft 117kts
14-Oct-19 09:53 35.097620 -120.602094 91 1014ft 113kts
14-Oct-19 09:54 35.097719 -120.567139 89 1220ft 105kts
14-Oct-19 09:55 35.097951 -120.531991 75 1414ft 97kts
14-Oct-19 09:56 35.101619 -120.494184 87 1347ft 118kts
14-Oct-19 09:57 35.103031 -120.455150 87 1405ft 111kts
14-Oct-19 09:58 35.104267 -120.417533 86 1734ft 117kts
14-Oct-19 09:59 35.104876 -120.382038 86 1730ft 119kts
14-Oct-19 10:00 35.105325 -120.345421 87 1729ft 110kts
14-Oct-19 10:01 35.103201 -120.315834 93 1722ft 100kts
14-Oct-19 10:02 35.100799 -120.284533 127 1576ft 0kts
14-Oct-19 10:03 35.100801 -120.284533 127 1576ft 0kts
14-Oct-19 10:04 35.101781 -120.624488 345 14ft 0kts
14-Oct-19 10:05 35.101781 -120.624488 345 14ft 0kts
14-Oct-19 10:06 35.101781 -120.624488 345 14ft 0kts
14-Oct-19 10:07 35.101856 -120.624497 5 14ft 10kts
14-Oct-19 10:08 35.099855 -120.620071 122 17ft 22kts
14-Oct-19 10:09 35.099694 -120.619279 24 17ft 0kts
14-Oct-19 10:10 35.104451 -120.628246 296 175ft 77kts
14-Oct-19 10:11 35.092113 -120.638668 120 630ft 102kts
14-Oct-19 10:13 35.090601 -120.603439 98 992ft 107kts
14-Oct-19 10:14 35.086160 -120.571611 96 1897ft 101kts
14-Oct-19 10:15 35.081058 -120.537011 101 2482ft 96kts
14-Oct-19 10:16 35.077265 -120.510611 95 3180ft 92kts
14-Oct-19 10:17 35.075493 -120.490114 94 3686ft 93kts
14-Oct-19 10:18 35.072135 -120.466965 100 3909ft 104kts
14-Oct-19 10:19 35.053123 -120.462517 237 3886ft 114kts
14-Oct-19 10:20 35.043968 -120.500764 260 3888ft 115kts
14-Oct-19 10:21 35.064227 -120.504256 68 3888ft 114kts
14-Oct-19 10:22 35.069677 -120.475367 84 3888ft 115kts
14-Oct-19 10:23 35.066813 -120.426640 96 3886ft 84kts
14-Oct-19 10:24 35.060364 -120.382482 99 3889ft 110kts
14-Oct-19 10:25 35.054176 -120.345166 100 3888ft 111kts
14-Oct-19 10:26 35.047992 -120.308768 100 3888ft 108kts
14-Oct-19 10:27 35.041842 -120.272762 100 3888ft 108kts
14-Oct-19 10:28 35.035766 -120.236640 100 3888ft 108kts
14-Oct-19 10:29 35.029879 -120.202206 100 3885ft 100kts
14-Oct-19 10:30 35.024157 -120.168966 100 3883ft 99kts
14-Oct-19 10:30 35.019802 -120.143733 100 3881ft 99kts
14-Oct-19 10:32 35.013591 -120.107706 100 3884ft 107kts
14-Oct-19 10:33 35.008671 -120.079296 101 4073ft 99kts
14-Oct-19 10:33 35.004784 -120.056879 101 4278ft 99kts
14-Oct-19 10:35 34.998518 -120.020802 101 4605ft 99kts
14-Oct-19 10:36 34.993182 -119.989997 101 4987ft 104kts
14-Oct-19 10:36 34.985370 -119.945428 101 4905ft 115kts
14-Oct-19 10:38 34.976931 -119.897295 102 4307ft 116kts
14-Oct-19 10:38 34.971704 -119.867421 101 3887ft 105kts
14-Oct-19 10:39 34.965783 -119.833626 102 3435ft 98kts
14-Oct-19 10:40 34.960971 -119.806062 101 3450ft 76kts
14-Oct-19 10:41 34.956701 -119.781445 101 3381ft 97kts
14-Oct-19 10:42 34.942563 -119.749590 107 2797ft 104kts
14-Oct-19 10:43 34.945303 -119.722274 25 2878ft 93kts
14-Oct-19 10:44 34.945785 -119.699846 125 2400ft 94kts
14-Oct-19 10:45 34.940292 -119.686241 289 2174ft 4kts
14-Oct-19 10:46 34.942828 -119.690559 121 2156ft 10kts
14-Oct-19 10:47 34.942537 -119.689817 11 2158ft 0kts
14-Oct-19 10:48 34.942537 -119.689817 11 2158ft 0kts

Navigation Log

Ident Type
Flight plan parsing failed, navigation log unavailable